Time;durP1;ratioP1;P1;durP2;ratioP2;P2;SDS_P1;SDS_P2;PMS_P1;PMS_P2;Temp;Humidity;BMP_temperature;BMP_pressure;BME280_temperature;BME280_humidity;BME280_pressure;Samples;Min_cycle;Max_cycle;Signal;HPM_P1;HPM_P2
2021/01/16 00:00:33;;;;;;;6.85;5.68;;;;;;;;;;4794042;30;20260;-87
2021/01/16 00:03:01;;;;;;;5.95;5.22;;;;;;;;;;4793962;30;20215;-88
2021/01/16 00:05:30;;;;;;;6.03;5.28;;;;;;;;;;4793992;30;20199;-88
2021/01/16 00:08:02;;;;;;;6.05;5.25;;;;;;;;;;4793747;30;20573;-87
2021/01/16 00:10:29;;;;;;;5.97;5.18;;;;;;;;;;4788575;30;20204;-89
2021/01/16 00:12:57;;;;;;;6.65;5.80;;;;;;;;;;4776061;30;20204;-88
2021/01/16 00:15:24;;;;;;;5.75;4.93;;;;;;;;;;4775601;30;20196;-89
2021/01/16 00:18:04;;;;;;;6.63;5.00;;;;;;;;;;4775592;30;20208;-88
2021/01/16 00:20:33;;;;;;;6.53;5.10;;;;;;;;;;4757853;30;20562;-89
2021/01/16 00:23:00;;;;;;;5.35;4.85;;;;;;;;;;4761532;30;20208;-89
2021/01/16 00:25:28;;;;;;;6.63;5.05;;;;;;;;;;4776017;30;20192;-88
2021/01/16 00:27:55;;;;;;;5.32;4.78;;;;;;;;;;4775059;30;20253;-88
2021/01/16 00:30:26;;;;;;;4.60;4.15;;;;;;;;;;4775445;30;20232;-88
2021/01/16 00:32:53;;;;;;;5.53;4.40;;;;;;;;;;4775256;30;20196;-88
2021/01/16 00:35:21;;;;;;;4.28;3.90;;;;;;;;;;4775454;30;20204;-89
2021/01/16 00:37:50;;;;;;;5.47;4.47;;;;;;;;;;4775213;30;20559;-89
2021/01/16 00:40:19;;;;;;;4.43;4.00;;;;;;;;;;4775545;30;20200;-88
2021/01/16 00:42:48;;;;;;;4.38;3.30;;;;;;;;;;4775354;30;20211;-88
2021/01/16 00:45:16;;;;;;;4.25;3.85;;;;;;;;;;4775280;30;20212;-89
2021/01/16 00:47:44;;;;;;;7.57;4.05;;;;;;;;;;4775093;30;20252;-89
2021/01/16 00:50:14;;;;;;;4.85;4.15;;;;;;;;;;4775370;30;20310;-87
2021/01/16 00:52:42;;;;;;;4.50;4.07;;;;;;;;;;4775527;30;20192;-89
2021/01/16 00:55:11;;;;;;;5.60;4.25;;;;;;;;;;4775207;30;20195;-88
2021/01/16 00:57:37;;;;;;;4.18;3.78;;;;;;;;;;4775133;30;20199;-89
2021/01/16 01:00:07;;;;;;;3.80;3.42;;;;;;;;;;4776186;30;20200;-93
2021/01/16 01:02:34;;;;;;;3.95;3.58;;;;;;;;;;4775202;30;20245;-89
2021/01/16 01:05:02;;;;;;;4.45;4.05;;;;;;;;;;4774230;30;20235;-87
2021/01/16 01:07:29;;;;;;;4.43;4.00;;;;;;;;;;4774511;30;20203;-88
2021/01/16 01:09:56;;;;;;;4.80;3.38;;;;;;;;;;4775104;30;20219;-88
2021/01/16 01:12:23;;;;;;;4.05;3.42;;;;;;;;;;4775060;30;20196;-88
2021/01/16 01:14:50;;;;;;;4.07;3.72;;;;;;;;;;4775072;30;20570;-89
2021/01/16 01:17:18;;;;;;;4.97;4.30;;;;;;;;;;4774790;30;20279;-88
2021/01/16 01:19:45;;;;;;;5.20;4.05;;;;;;;;;;4775124;30;20232;-88
2021/01/16 01:22:13;;;;;;;7.90;4.38;;;;;;;;;;4775078;30;20452;-87
2021/01/16 01:24:40;;;;;;;4.93;4.05;;;;;;;;;;4774546;30;20600;-87
2021/01/16 01:27:08;;;;;;;4.20;3.80;;;;;;;;;;4774629;30;20210;-88
2021/01/16 01:29:35;;;;;;;4.40;4.00;;;;;;;;;;4774701;30;20196;-87
2021/01/16 01:32:02;;;;;;;7.57;4.38;;;;;;;;;;4774994;30;20198;-87
2021/01/16 01:34:29;;;;;;;3.38;3.08;;;;;;;;;;4774528;30;20602;-87
2021/01/16 01:36:56;;;;;;;3.60;3.30;;;;;;;;;;4774262;30;20218;-88
2021/01/16 01:39:23;;;;;;;3.80;3.53;;;;;;;;;;4774610;30;20567;-88
2021/01/16 01:41:50;;;;;;;4.47;4.07;;;;;;;;;;4774694;30;20254;-87
2021/01/16 01:44:18;;;;;;;5.15;4.38;;;;;;;;;;4774595;30;20226;-89
2021/01/16 01:46:45;;;;;;;5.85;4.13;;;;;;;;;;4774418;30;20208;-89
2021/01/16 01:49:12;;;;;;;4.85;4.38;;;;;;;;;;4776752;30;20251;-88
2021/01/16 01:51:39;;;;;;;5.82;4.65;;;;;;;;;;4778225;30;20462;-89
2021/01/16 01:54:06;;;;;;;4.20;3.80;;;;;;;;;;4778447;30;20211;-89
2021/01/16 01:56:35;;;;;;;4.75;4.20;;;;;;;;;;4778134;30;20192;-89
2021/01/16 01:59:03;;;;;;;4.95;4.28;;;;;;;;;;4777928;30;20196;-89
2021/01/16 02:01:32;;;;;;;4.38;3.97;;;;;;;;;;4777914;30;20196;-89
2021/01/16 02:03:59;;;;;;;6.80;4.65;;;;;;;;;;4778160;30;20225;-88
2021/01/16 02:06:27;;;;;;;4.93;4.43;;;;;;;;;;4778481;30;20198;-89
2021/01/16 02:08:57;;;;;;;5.13;4.63;;;;;;;;;;4777993;30;20519;-88
2021/01/16 02:11:24;;;;;;;5.47;4.18;;;;;;;;;;4778044;30;20218;-89
2021/01/16 02:13:51;;;;;;;6.15;5.30;;;;;;;;;;4778599;30;20546;-90
2021/01/16 02:16:28;;;;;;;4.75;4.05;;;;;;;;;;4778319;30;20215;-88
2021/01/16 02:18:58;;;;;;;6.95;4.60;;;;;;;;;;4777279;30;20223;-88
2021/01/16 02:21:26;;;;;;;5.43;4.55;;;;;;;;;;4777866;30;20196;-90
2021/01/16 02:24:04;;;;;;;4.55;4.03;;;;;;;;;;4777832;30;20216;-88
2021/01/16 02:27:04;;;;;;;5.60;4.53;;;;;;;;;;4777514;30;20632;-88
2021/01/16 02:29:32;;;;;;;6.05;4.78;;;;;;;;;;4777725;30;20204;-88
2021/01/16 02:32:02;;;;;;;5.88;4.13;;;;;;;;;;4777562;30;20551;-89
2021/01/16 02:34:33;;;;;;;5.95;5.35;;;;;;;;;;4777828;30;20192;-89
2021/01/16 02:37:52;;;;;;;5.57;4.82;;;;;;;;;;4777776;30;20212;-89
2021/01/16 02:40:23;;;;;;;6.70;4.00;;;;;;;;;;4774564;30;20257;-88
2021/01/16 02:43:06;;;;;;;8.68;7.10;;;;;;;;;;4777372;30;20188;-89
2021/01/16 02:45:38;;;;;;;6.78;4.78;;;;;;;;;;4771900;30;20223;-89
2021/01/16 02:48:22;;;;;;;6.97;5.15;;;;;;;;;;4771958;30;20211;-89
2021/01/16 02:50:51;;;;;;;5.60;5.00;;;;;;;;;;4777202;30;20200;-89
2021/01/16 02:53:21;;;;;;;6.88;5.32;;;;;;;;;;4777089;30;20223;-89
2021/01/16 02:55:49;;;;;;;6.78;5.47;;;;;;;;;;4777138;30;20208;-89
2021/01/16 02:58:17;;;;;;;5.95;4.65;;;;;;;;;;4776729;30;20563;-89
2021/01/16 03:00:45;;;;;;;7.55;4.72;;;;;;;;;;4776305;30;20473;-87
2021/01/16 03:03:12;;;;;;;5.85;4.63;;;;;;;;;;4777468;30;20473;-87
2021/01/16 03:05:39;;;;;;;5.60;5.05;;;;;;;;;;4776865;30;20322;-88
2021/01/16 03:08:07;;;;;;;6.95;5.45;;;;;;;;;;4776984;30;20203;-88
2021/01/16 03:10:35;;;;;;;6.82;5.53;;;;;;;;;;4777009;30;20245;-87
2021/01/16 03:13:03;;;;;;;6.10;5.32;;;;;;;;;;4776654;30;20197;-87
2021/01/16 03:15:30;;;;;;;9.90;5.88;;;;;;;;;;4776938;30;20192;-88
2021/01/16 03:17:59;;;;;;;5.90;5.03;;;;;;;;;;4776579;30;20219;-88
2021/01/16 03:20:28;;;;;;;6.18;5.57;;;;;;;;;;4776807;30;20254;-87
2021/01/16 03:22:57;;;;;;;7.22;5.05;;;;;;;;;;4776763;30;20196;-87
2021/01/16 03:25:27;;;;;;;6.47;5.68;;;;;;;;;;4776410;30;20208;-87
2021/01/16 03:27:55;;;;;;;8.10;5.60;;;;;;;;;;4776464;30;20272;-88
2021/01/16 03:30:23;;;;;;;6.13;5.35;;;;;;;;;;4776471;30;20189;-87
2021/01/16 03:32:52;;;;;;;6.40;5.18;;;;;;;;;;4745510;30;20206;-87
2021/01/16 03:35:23;;;;;;;6.65;5.07;;;;;;;;;;4731676;30;20219;-87
2021/01/16 03:37:50;;;;;;;6.45;5.63;;;;;;;;;;4775959;30;20188;-88
2021/01/16 03:40:18;;;;;;;6.50;5.28;;;;;;;;;;4776492;30;20204;-88
2021/01/16 03:42:45;;;;;;;6.93;5.13;;;;;;;;;;4776431;30;20196;-89
2021/01/16 03:45:16;;;;;;;6.65;5.35;;;;;;;;;;4776507;30;20222;-89
2021/01/16 03:47:43;;;;;;;7.22;5.85;;;;;;;;;;4776042;30;20188;-89
2021/01/16 03:50:11;;;;;;;8.07;6.03;;;;;;;;;;4775875;30;20668;-89
2021/01/16 03:52:40;;;;;;;6.72;6.00;;;;;;;;;;4777081;30;20216;-88
2021/01/16 03:55:10;;;;;;;8.15;6.22;;;;;;;;;;4776428;30;20197;-88
2021/01/16 03:57:38;;;;;;;9.40;7.28;;;;;;;;;;4776376;30;20250;-87
2021/01/16 04:00:07;;;;;;;7.80;6.00;;;;;;;;;;4775858;30;20548;-87
2021/01/16 04:02:34;;;;;;;7.70;5.47;;;;;;;;;;4776177;30;20203;-87
2021/01/16 04:05:01;;;;;;;8.73;6.15;;;;;;;;;;4776038;30;20247;-88
2021/01/16 04:07:28;;;;;;;8.43;6.25;;;;;;;;;;4776066;30;20315;-88
2021/01/16 04:09:56;;;;;;;6.53;5.88;;;;;;;;;;4775833;30;20198;-87
2021/01/16 04:12:23;;;;;;;6.43;5.13;;;;;;;;;;4775846;30;20196;-88
2021/01/16 04:14:50;;;;;;;5.85;5.00;;;;;;;;;;4776017;30;20200;-88
2021/01/16 04:17:17;;;;;;;6.75;5.38;;;;;;;;;;4775797;30;20226;-88
2021/01/16 04:19:44;;;;;;;7.32;5.72;;;;;;;;;;4775372;30;20637;-89
2021/01/16 04:22:11;;;;;;;6.53;4.82;;;;;;;;;;4775603;30;20190;-89
2021/01/16 04:24:38;;;;;;;7.35;5.82;;;;;;;;;;4775414;30;20216;-88
2021/01/16 04:27:06;;;;;;;7.13;5.03;;;;;;;;;;4775654;30;20219;-88
2021/01/16 04:29:33;;;;;;;7.13;5.45;;;;;;;;;;4775613;30;20220;-88
2021/01/16 04:32:00;;;;;;;5.63;4.50;;;;;;;;;;4775498;30;20194;-88
2021/01/16 04:34:27;;;;;;;5.63;4.18;;;;;;;;;;4775705;30;20207;-88
2021/01/16 04:36:54;;;;;;;7.72;5.05;;;;;;;;;;4775759;30;20192;-87
2021/01/16 04:39:21;;;;;;;7.00;5.13;;;;;;;;;;4775569;30;20192;-87
2021/01/16 04:41:48;;;;;;;4.28;3.58;;;;;;;;;;4775484;30;20192;-88
2021/01/16 04:44:16;;;;;;;4.57;3.83;;;;;;;;;;4775403;30;20192;-88
2021/01/16 04:46:43;;;;;;;3.83;3.40;;;;;;;;;;4775514;30;20203;-88
2021/01/16 04:49:11;;;;;;;6.30;4.60;;;;;;;;;;4775171;30;20970;-88
2021/01/16 04:51:43;;;;;;;6.10;4.13;;;;;;;;;;4775527;30;20196;-88
2021/01/16 04:54:15;;;;;;;6.55;4.97;;;;;;;;;;4775155;30;20196;-88
2021/01/16 04:56:43;;;;;;;5.45;4.35;;;;;;;;;;4775192;30;20547;-88
2021/01/16 04:59:10;;;;;;;6.10;4.60;;;;;;;;;;4775613;30;20198;-90
2021/01/16 05:01:38;;;;;;;5.45;4.15;;;;;;;;;;4775397;30;20200;-89
2021/01/16 05:04:08;;;;;;;6.03;4.78;;;;;;;;;;4775102;30;20206;-89
2021/01/16 05:06:40;;;;;;;6.35;5.00;;;;;;;;;;4775384;30;20220;-89
2021/01/16 05:09:07;;;;;;;5.82;4.13;;;;;;;;;;4775346;30;20469;-88
2021/01/16 05:11:42;;;;;;;5.55;4.57;;;;;;;;;;4775562;30;20271;-89
2021/01/16 05:14:18;;;;;;;5.45;4.65;;;;;;;;;;4775221;30;20199;-88
2021/01/16 05:16:53;;;;;;;5.28;4.45;;;;;;;;;;4775250;30;20191;-89
2021/01/16 05:19:26;;;;;;;5.20;3.67;;;;;;;;;;4775039;30;20646;-88
2021/01/16 05:21:54;;;;;;;7.40;5.50;;;;;;;;;;4775161;30;20197;-89
2021/01/16 05:24:22;;;;;;;5.10;4.60;;;;;;;;;;4777039;30;20250;-88
2021/01/16 05:27:02;;;;;;;5.47;4.55;;;;;;;;;;4779111;30;20211;-88
2021/01/16 05:29:30;;;;;;;5.60;4.22;;;;;;;;;;4778771;30;20214;-88
2021/01/16 05:32:00;;;;;;;7.35;4.75;;;;;;;;;;4778769;30;20215;-89
2021/01/16 05:34:28;;;;;;;6.22;4.60;;;;;;;;;;4779518;30;20443;-89
2021/01/16 05:36:56;;;;;;;8.68;5.53;;;;;;;;;;4778444;30;20192;-88
2021/01/16 05:39:25;;;;;;;5.20;4.70;;;;;;;;;;4778333;30;20567;-89
2021/01/16 05:41:57;;;;;;;5.93;4.53;;;;;;;;;;4778897;30;20192;-88
2021/01/16 05:44:26;;;;;;;4.90;4.47;;;;;;;;;;4778614;30;20447;-88
2021/01/16 05:46:54;;;;;;;4.97;4.47;;;;;;;;;;4778424;30;20470;-89
2021/01/16 05:49:22;;;;;;;6.00;4.85;;;;;;;;;;4778145;30;20248;-88
2021/01/16 05:51:50;;;;;;;5.85;4.22;;;;;;;;;;4778274;30;20586;-89
2021/01/16 05:54:19;;;;;;;5.13;4.57;;;;;;;;;;4778397;30;20184;-88
2021/01/16 05:56:47;;;;;;;4.97;4.15;;;;;;;;;;4778321;30;20286;-88
2021/01/16 05:59:17;;;;;;;5.25;3.95;;;;;;;;;;4778212;30;20577;-89
2021/01/16 06:01:46;;;;;;;5.68;5.05;;;;;;;;;;4778414;30;20193;-88
2021/01/16 06:04:16;;;;;;;5.57;4.32;;;;;;;;;;4778696;30;20196;-88
2021/01/16 06:06:44;;;;;;;5.22;3.90;;;;;;;;;;4778125;30;20216;-88
2021/01/16 06:09:16;;;;;;;4.78;4.25;;;;;;;;;;4778142;30;20208;-87
2021/01/16 06:11:47;;;;;;;5.32;4.70;;;;;;;;;;4778669;30;20189;-88
2021/01/16 06:14:14;;;;;;;11.85;7.38;;;;;;;;;;4778123;30;20200;-89
2021/01/16 06:16:53;;;;;;;8.10;5.75;;;;;;;;;;4777794;30;20256;-88
2021/01/16 06:19:23;;;;;;;7.25;6.18;;;;;;;;;;4778115;30;20248;-89
2021/01/16 06:21:51;;;;;;;5.00;4.47;;;;;;;;;;4778010;30;20541;-88
2021/01/16 06:24:21;;;;;;;6.07;4.55;;;;;;;;;;4777852;30;20559;-88
2021/01/16 06:26:55;;;;;;;5.30;4.80;;;;;;;;;;4778051;30;20285;-88
2021/01/16 06:29:27;;;;;;;6.93;4.88;;;;;;;;;;4777814;30;20203;-88
2021/01/16 06:32:05;;;;;;;5.55;4.70;;;;;;;;;;4777507;30;20524;-89
2021/01/16 06:34:33;;;;;;;6.28;4.75;;;;;;;;;;4777312;30;20552;-87
2021/01/16 06:37:12;;;;;;;5.15;4.15;;;;;;;;;;4777640;30;20196;-88
2021/01/16 06:39:41;;;;;;;6.90;5.07;;;;;;;;;;4777384;30;20208;-88
2021/01/16 06:42:12;;;;;;;4.53;3.80;;;;;;;;;;4777204;30;20566;-88
2021/01/16 06:44:40;;;;;;;6.20;4.95;;;;;;;;;;4777432;30;20200;-88
2021/01/16 06:47:08;;;;;;;6.70;4.90;;;;;;;;;;4777477;30;20220;-88
2021/01/16 06:49:36;;;;;;;9.57;5.57;;;;;;;;;;4777090;30;20562;-89
2021/01/16 06:52:05;;;;;;;6.50;5.05;;;;;;;;;;4777174;30;20189;-88
2021/01/16 06:54:34;;;;;;;4.82;4.22;;;;;;;;;;4777338;30;20471;-88
2021/01/16 06:57:04;;;;;;;6.72;4.70;;;;;;;;;;4777408;30;20498;-88
2021/01/16 06:59:32;;;;;;;5.32;4.60;;;;;;;;;;4777082;30;20192;-87
2021/01/16 07:02:00;;;;;;;6.20;4.47;;;;;;;;;;4777006;30;20257;-88
2021/01/16 07:04:29;;;;;;;4.85;4.35;;;;;;;;;;4777109;30;20559;-89
2021/01/16 07:06:57;;;;;;;5.55;4.50;;;;;;;;;;4777233;30;20211;-88
2021/01/16 07:09:25;;;;;;;6.10;5.30;;;;;;;;;;4777076;30;20196;-88
2021/01/16 07:11:55;;;;;;;5.57;4.72;;;;;;;;;;4777125;30;20464;-88
2021/01/16 07:14:23;;;;;;;5.38;4.88;;;;;;;;;;4776778;30;20563;-88
2021/01/16 07:16:50;;;;;;;6.25;4.68;;;;;;;;;;4776431;30;20578;-88
2021/01/16 07:19:20;;;;;;;6.65;5.00;;;;;;;;;;4776569;30;20274;-88
2021/01/16 07:21:48;;;;;;;6.50;5.28;;;;;;;;;;4776943;30;20231;-89
2021/01/16 07:24:17;;;;;;;6.82;4.78;;;;;;;;;;4776613;30;20243;-88
2021/01/16 07:26:48;;;;;;;6.57;5.68;;;;;;;;;;4776479;30;20220;-89
2021/01/16 07:29:16;;;;;;;6.30;4.88;;;;;;;;;;4776863;30;20188;-88
2021/01/16 07:31:45;;;;;;;7.05;5.82;;;;;;;;;;4776236;30;20208;-88
2021/01/16 07:34:12;;;;;;;6.82;6.00;;;;;;;;;;4776783;30;20202;-88
2021/01/16 07:36:39;;;;;;;7.47;5.47;;;;;;;;;;4776750;30;20504;-89
2021/01/16 07:39:08;;;;;;;7.20;5.32;;;;;;;;;;4776578;30;20215;-89
2021/01/16 07:41:36;;;;;;;7.65;6.20;;;;;;;;;;4776280;30;20192;-88
2021/01/16 07:44:07;;;;;;;8.13;6.90;;;;;;;;;;4776493;30;20208;-89
2021/01/16 07:46:36;;;;;;;7.35;5.80;;;;;;;;;;4776124;30;20276;-88
2021/01/16 07:49:06;;;;;;;9.00;6.22;;;;;;;;;;4776022;30;20239;-88
2021/01/16 07:51:35;;;;;;;8.77;6.95;;;;;;;;;;4776196;30;20189;-87
2021/01/16 07:54:08;;;;;;;9.50;6.50;;;;;;;;;;4776294;30;20222;-89
2021/01/16 07:56:43;;;;;;;7.63;5.75;;;;;;;;;;4777466;30;20227;-88
2021/01/16 07:59:18;;;;;;;9.05;6.10;;;;;;;;;;4776785;30;20196;-88
2021/01/16 08:02:27;;;;;;;9.90;6.97;;;;;;;;;;4776037;30;20192;-88
2021/01/16 08:05:17;;;;;;;8.88;6.63;;;;;;;;;;4776125;30;20200;-88
2021/01/16 08:08:17;;;;;;;7.68;6.00;;;;;;;;;;4775940;30;20208;-87
2021/01/16 08:10:44;;;;;;;7.10;5.68;;;;;;;;;;4775678;30;20257;-88
2021/01/16 08:13:12;;;;;;;8.77;6.40;;;;;;;;;;4775869;30;20580;-90
2021/01/16 08:15:42;;;;;;;11.43;6.90;;;;;;;;;;4775902;30;20196;-88
2021/01/16 08:18:16;;;;;;;11.15;7.63;;;;;;;;;;4775741;30;20192;-88
2021/01/16 08:20:46;;;;;;;9.70;6.78;;;;;;;;;;4775681;30;20227;-89
2021/01/16 08:23:23;;;;;;;7.88;6.45;;;;;;;;;;4775856;30;20581;-88
2021/01/16 08:25:51;;;;;;;8.55;6.63;;;;;;;;;;4776270;30;20219;-89
2021/01/16 08:28:28;;;;;;;8.57;7.03;;;;;;;;;;4775522;30;20571;-88
2021/01/16 08:30:55;;;;;;;9.55;6.47;;;;;;;;;;4775483;30;20205;-89
2021/01/16 08:33:34;;;;;;;8.68;6.00;;;;;;;;;;4775629;30;20218;-88
2021/01/16 08:36:17;;;;;;;9.48;7.38;;;;;;;;;;4775653;30;20211;-88
2021/01/16 08:38:45;;;;;;;10.43;6.93;;;;;;;;;;4775691;30;20574;-88
2021/01/16 08:41:14;;;;;;;11.75;8.15;;;;;;;;;;4775819;30;20193;-90
2021/01/16 08:43:43;;;;;;;11.00;8.35;;;;;;;;;;4775342;30;20199;-90
2021/01/16 08:46:14;;;;;;;10.15;8.10;;;;;;;;;;4775541;30;20280;-89
2021/01/16 08:48:59;;;;;;;9.43;7.07;;;;;;;;;;4775482;30;20197;-90
2021/01/16 08:51:31;;;;;;;9.38;8.00;;;;;;;;;;4775490;30;20196;-88
2021/01/16 08:54:18;;;;;;;11.45;7.72;;;;;;;;;;4775560;30;20196;-88
2021/01/16 08:56:47;;;;;;;9.75;7.45;;;;;;;;;;4775460;30;20191;-88
2021/01/16 08:59:16;;;;;;;11.10;7.50;;;;;;;;;;4774305;30;20555;-89
2021/01/16 09:01:44;;;;;;;9.75;7.00;;;;;;;;;;4775378;30;20256;-88
2021/01/16 09:04:22;;;;;;;8.60;6.93;;;;;;;;;;4775324;30;20196;-88
2021/01/16 09:06:51;;;;;;;8.07;6.43;;;;;;;;;;4775163;30;20212;-87
2021/01/16 09:09:28;;;;;;;9.35;7.28;;;;;;;;;;4774944;30;20571;-87
2021/01/16 09:12:10;;;;;;;11.25;6.80;;;;;;;;;;4775255;30;20195;-88
2021/01/16 09:14:38;;;;;;;12.88;8.23;;;;;;;;;;4774880;30;20479;-89
2021/01/16 09:17:23;;;;;;;8.82;6.70;;;;;;;;;;4775211;30;20206;-88
2021/01/16 09:19:58;;;;;;;11.05;6.95;;;;;;;;;;4774607;30;20231;-88
2021/01/16 09:22:28;;;;;;;9.05;6.75;;;;;;;;;;4775172;30;20200;-88
2021/01/16 09:25:21;;;;;;;11.52;8.05;;;;;;;;;;4774913;30;20502;-88
2021/01/16 09:27:49;;;;;;;8.13;6.47;;;;;;;;;;4774799;30;20606;-90
2021/01/16 09:30:20;;;;;;;9.60;7.45;;;;;;;;;;4775068;30;20355;-89
2021/01/16 09:32:47;;;;;;;10.88;8.15;;;;;;;;;;4774785;30;20437;-87
2021/01/16 09:35:36;;;;;;;12.10;6.93;;;;;;;;;;4774780;30;20184;-88
2021/01/16 09:38:05;;;;;;;9.05;7.05;;;;;;;;;;4775611;30;20294;-89
2021/01/16 09:40:36;;;;;;;8.32;6.68;;;;;;;;;;4774690;30;20207;-88
2021/01/16 09:43:15;;;;;;;7.90;6.63;;;;;;;;;;4774789;30;20188;-89
2021/01/16 09:45:53;;;;;;;11.43;7.65;;;;;;;;;;4774959;30;20196;-89
2021/01/16 09:48:46;;;;;;;9.38;6.95;;;;;;;;;;4775015;30;20416;-90
2021/01/16 09:51:14;;;;;;;11.10;7.07;;;;;;;;;;4774952;30;20202;-90
2021/01/16 09:53:42;;;;;;;10.52;8.45;;;;;;;;;;4775013;30;20208;-87
2021/01/16 09:56:09;;;;;;;8.88;7.30;;;;;;;;;;4775453;30;20203;-89
2021/01/16 09:58:39;;;;;;;8.80;7.10;;;;;;;;;;4774920;30;20547;-89
2021/01/16 10:01:21;;;;;;;9.30;7.05;;;;;;;;;;4775541;30;20200;-89
2021/01/16 10:03:50;;;;;;;9.80;6.85;;;;;;;;;;4775486;30;20478;-89
2021/01/16 10:06:18;;;;;;;8.38;6.22;;;;;;;;;;4774815;30;20189;-89
2021/01/16 10:08:46;;;;;;;10.40;6.65;;;;;;;;;;4774833;30;20204;-89
2021/01/16 10:11:14;;;;;;;9.38;6.30;;;;;;;;;;4777325;30;20280;-88
2021/01/16 10:13:42;;;;;;;9.32;6.90;;;;;;;;;;4777959;30;20211;-88
2021/01/16 10:16:11;;;;;;;9.00;7.32;;;;;;;;;;4773657;30;20212;-89
2021/01/16 10:18:40;;;;;;;9.48;7.20;;;;;;;;;;4773442;30;20478;-88
2021/01/16 10:21:09;;;;;;;8.68;6.90;;;;;;;;;;4778281;30;20196;-89
2021/01/16 10:23:41;;;;;;;8.27;6.55;;;;;;;;;;4766157;30;20200;-86
2021/01/16 10:26:10;;;;;;;7.45;5.95;;;;;;;;;;4759964;30;20201;-87
2021/01/16 10:28:39;;;;;;;8.75;7.07;;;;;;;;;;4760056;30;20558;-88
2021/01/16 10:31:08;;;;;;;8.15;6.40;;;;;;;;;;4759917;30;20213;-88
2021/01/16 10:33:42;;;;;;;8.43;6.95;;;;;;;;;;4760732;30;20283;-86
2021/01/16 10:36:13;;;;;;;8.43;6.45;;;;;;;;;;4770674;30;20211;-86
2021/01/16 10:38:50;;;;;;;12.35;6.65;;;;;;;;;;4776849;30;20204;-87
2021/01/16 10:41:19;;;;;;;9.38;6.70;;;;;;;;;;4776499;30;20192;-86
2021/01/16 10:43:47;;;;;;;10.07;7.47;;;;;;;;;;4776859;30;20196;-86
2021/01/16 10:46:29;;;;;;;9.07;7.22;;;;;;;;;;4768550;30;20215;-88
2021/01/16 10:49:12;;;;;;;8.52;6.53;;;;;;;;;;4759776;30;20255;-88
2021/01/16 10:51:41;;;;;;;9.32;6.43;;;;;;;;;;4762453;30;20192;-87
2021/01/16 10:54:09;;;;;;;9.20;6.70;;;;;;;;;;4776970;30;20282;-88
2021/01/16 10:56:36;;;;;;;11.07;7.38;;;;;;;;;;4776296;30;20203;-88
2021/01/16 10:59:11;;;;;;;9.35;7.22;;;;;;;;;;4777209;30;20476;-88
2021/01/16 11:01:46;;;;;;;7.78;6.43;;;;;;;;;;4777229;30;20216;-88
2021/01/16 11:04:23;;;;;;;9.38;6.43;;;;;;;;;;4777188;30;20207;-90
2021/01/16 11:06:53;;;;;;;8.30;6.18;;;;;;;;;;4777117;30;20211;-89
2021/01/16 11:09:50;;;;;;;8.20;6.53;;;;;;;;;;4776917;30;20200;-90
2021/01/16 11:12:26;;;;;;;9.48;6.60;;;;;;;;;;4776218;30;20209;-89
2021/01/16 11:14:53;;;;;;;9.82;6.70;;;;;;;;;;4775729;30;20195;-86
2021/01/16 11:17:21;;;;;;;7.03;6.32;;;;;;;;;;4762668;30;20266;-88
2021/01/16 11:19:55;;;;;;;8.30;6.78;;;;;;;;;;4776600;30;20232;-87
2021/01/16 11:22:22;;;;;;;6.60;5.32;;;;;;;;;;4775775;30;20258;-87
2021/01/16 11:25:41;;;;;;;8.30;6.38;;;;;;;;;;4776206;30;20199;-87
2021/01/16 11:28:09;;;;;;;7.57;6.25;;;;;;;;;;4776165;30;20220;-88
2021/01/16 11:30:46;;;;;;;6.70;5.50;;;;;;;;;;4772283;30;20212;-86
2021/01/16 11:33:17;;;;;;;5.40;4.78;;;;;;;;;;4775071;30;20195;-86
2021/01/16 11:35:45;;;;;;;7.00;5.40;;;;;;;;;;4775774;30;20455;-86
2021/01/16 11:38:40;;;;;;;6.20;5.60;;;;;;;;;;4775475;30;20212;-87
2021/01/16 11:41:09;;;;;;;7.10;5.40;;;;;;;;;;4775477;30;20292;-86
2021/01/16 11:43:37;;;;;;;7.50;4.78;;;;;;;;;;4775438;30;20555;-86
2021/01/16 11:46:10;;;;;;;8.20;6.72;;;;;;;;;;4775679;30;20449;-85
2021/01/16 11:48:38;;;;;;;8.82;5.95;;;;;;;;;;4775066;30;20230;-86
2021/01/16 11:51:16;;;;;;;8.68;4.80;;;;;;;;;;4821335;24;20231;-86
2021/01/16 11:53:48;;;;;;;5.90;4.97;;;;;;;;;;4787887;29;20217;-86
2021/01/16 11:56:18;;;;;;;5.93;4.95;;;;;;;;;;4789769;30;20193;-86
2021/01/16 11:58:47;;;;;;;7.93;5.60;;;;;;;;;;4775347;30;20200;-87
2021/01/16 12:01:16;;;;;;;7.53;5.70;;;;;;;;;;4775579;30;20604;-87
2021/01/16 12:03:43;;;;;;;8.18;5.45;;;;;;;;;;4776048;30;20203;-88
2021/01/16 12:06:15;;;;;;;6.22;5.28;;;;;;;;;;4786684;30;20204;-86
2021/01/16 12:08:48;;;;;;;5.18;4.50;;;;;;;;;;4775140;30;20224;-85
2021/01/16 12:11:16;;;;;;;6.82;5.97;;;;;;;;;;4785147;30;20533;-87
2021/01/16 12:13:48;;;;;;;8.15;5.60;;;;;;;;;;4793233;30;20566;-87
2021/01/16 12:16:16;;;;;;;8.15;6.30;;;;;;;;;;4793446;30;20192;-87
2021/01/16 12:18:43;;;;;;;7.47;5.38;;;;;;;;;;4786858;30;20208;-87
2021/01/16 12:21:11;;;;;;;6.88;5.10;;;;;;;;;;4763359;30;20246;-88
2021/01/16 12:23:43;;;;;;;5.55;4.43;;;;;;;;;;4756800;30;20208;-88
2021/01/16 12:26:12;;;;;;;5.88;4.70;;;;;;;;;;4757314;30;20505;-87
2021/01/16 12:28:46;;;;;;;6.43;4.57;;;;;;;;;;4756714;30;20217;-86
2021/01/16 12:31:23;;;;;;;6.07;4.68;;;;;;;;;;4757255;30;20199;-85
2021/01/16 12:33:51;;;;;;;6.10;4.55;;;;;;;;;;4775310;30;20207;-87
2021/01/16 12:36:19;;;;;;;4.90;4.03;;;;;;;;;;4758929;30;20523;-86
2021/01/16 12:38:51;;;;;;;5.95;4.60;;;;;;;;;;4756954;30;20213;-87
2021/01/16 12:41:22;;;;;;;6.88;4.30;;;;;;;;;;4757449;30;20193;-88
2021/01/16 12:43:51;;;;;;;4.90;3.70;;;;;;;;;;4757009;30;20556;-88
2021/01/16 12:46:20;;;;;;;6.25;3.60;;;;;;;;;;4757304;30;20218;-87
2021/01/16 12:48:47;;;;;;;7.10;4.32;;;;;;;;;;4766960;30;20586;-89
2021/01/16 12:51:33;;;;;;;5.55;4.13;;;;;;;;;;4774887;30;20526;-87
2021/01/16 12:54:00;;;;;;;4.97;3.67;;;;;;;;;;4774558;30;20206;-86
2021/01/16 12:56:28;;;;;;;4.03;3.35;;;;;;;;;;4773286;30;20196;-86
2021/01/16 12:58:56;;;;;;;4.32;3.92;;;;;;;;;;4774106;30;20292;-89
2021/01/16 13:01:24;;;;;;;4.53;3.53;;;;;;;;;;4774668;30;20191;-88
2021/01/16 13:03:51;;;;;;;4.50;3.35;;;;;;;;;;4774834;30;20200;-87
2021/01/16 13:06:18;;;;;;;4.70;2.55;;;;;;;;;;4773347;30;20208;-89
2021/01/16 13:08:45;;;;;;;4.78;2.90;;;;;;;;;;4774617;30;20220;-90
2021/01/16 13:11:14;;;;;;;4.97;3.42;;;;;;;;;;4775085;30;20200;-88
2021/01/16 13:13:53;;;;;;;3.28;2.85;;;;;;;;;;4774821;30;20498;-88
2021/01/16 13:16:22;;;;;;;4.32;2.72;;;;;;;;;;4774509;30;20275;-87
2021/01/16 13:18:49;;;;;;;3.67;3.08;;;;;;;;;;4774478;30;20199;-87
2021/01/16 13:21:16;;;;;;;5.13;3.30;;;;;;;;;;4758301;30;20240;-88
2021/01/16 13:23:44;;;;;;;3.38;3.08;;;;;;;;;;4755300;30;20200;-88
2021/01/16 13:26:14;;;;;;;3.92;3.53;;;;;;;;;;4756799;30;20197;-88
2021/01/16 13:28:42;;;;;;;6.35;4.70;;;;;;;;;;4766510;30;20605;-87
2021/01/16 13:31:10;;;;;;;6.20;5.35;;;;;;;;;;4774645;30;20188;-88
2021/01/16 13:33:38;;;;;;;6.18;4.97;;;;;;;;;;4774646;30;20202;-87
2021/01/16 13:36:13;;;;;;;6.32;5.15;;;;;;;;;;4773809;30;20192;-87
2021/01/16 13:38:41;;;;;;;7.53;5.63;;;;;;;;;;4774211;30;20254;-88
2021/01/16 13:41:09;;;;;;;6.22;4.70;;;;;;;;;;4773059;30;20192;-88
2021/01/16 13:43:42;;;;;;;6.80;4.80;;;;;;;;;;4774662;30;20204;-87
2021/01/16 13:46:10;;;;;;;7.03;5.97;;;;;;;;;;4777289;30;20588;-88
2021/01/16 13:48:40;;;;;;;5.95;5.20;;;;;;;;;;4767198;30;20220;-87
2021/01/16 13:51:22;;;;;;;5.97;4.93;;;;;;;;;;4759902;30;20611;-89
2021/01/16 13:54:01;;;;;;;4.45;3.92;;;;;;;;;;4760407;30;20199;-88
2021/01/16 13:56:35;;;;;;;8.90;6.43;;;;;;;;;;4760202;30;20189;-87
2021/01/16 13:59:02;;;;;;;5.25;4.55;;;;;;;;;;4759427;30;20207;-88
2021/01/16 14:01:34;;;;;;;5.43;4.18;;;;;;;;;;4760040;30;20200;-88
2021/01/16 14:04:08;;;;;;;4.35;3.95;;;;;;;;;;4760088;30;20250;-91
2021/01/16 14:06:49;;;;;;;4.50;4.07;;;;;;;;;;4759480;30;20193;-87
2021/01/16 14:09:27;;;;;;;4.28;3.55;;;;;;;;;;4762188;30;20235;-86
2021/01/16 14:11:57;;;;;;;4.68;3.38;;;;;;;;;;4777566;30;20262;-87
2021/01/16 14:14:31;;;;;;;6.43;4.07;;;;;;;;;;4777739;30;20206;-89
2021/01/16 14:17:19;;;;;;;4.97;4.28;;;;;;;;;;4776646;30;20195;-88
2021/01/16 14:20:01;;;;;;;6.90;4.03;;;;;;;;;;4777224;30;20207;-89
2021/01/16 14:22:38;;;;;;;5.07;4.03;;;;;;;;;;4764930;30;20571;-88
2021/01/16 14:25:09;;;;;;;4.28;3.88;;;;;;;;;;4759203;30;20467;-88
2021/01/16 14:27:42;;;;;;;6.53;4.28;;;;;;;;;;4759310;30;20271;-89
2021/01/16 14:30:11;;;;;;;4.13;3.72;;;;;;;;;;4766939;30;20212;-87
2021/01/16 14:32:38;;;;;;;4.90;3.58;;;;;;;;;;4773521;30;20208;-91
2021/01/16 14:35:18;;;;;;;4.25;3.85;;;;;;;;;;4765212;30;20227;-89
2021/01/16 14:37:45;;;;;;;4.00;3.28;;;;;;;;;;4776195;30;20258;-88
2021/01/16 14:40:13;;;;;;;4.70;4.10;;;;;;;;;;4776550;30;20218;-85
2021/01/16 14:42:40;;;;;;;11.10;3.55;;;;;;;;;;4777750;30;20478;-89
2021/01/16 14:45:09;;;;;;;4.30;3.35;;;;;;;;;;4776727;30;20203;-89
2021/01/16 14:47:36;;;;;;;5.60;4.63;;;;;;;;;;4759741;30;20248;-89
2021/01/16 14:50:10;;;;;;;4.07;3.60;;;;;;;;;;4758834;30;20229;-87
2021/01/16 14:52:37;;;;;;;5.40;3.78;;;;;;;;;;4759196;30;20212;-88
2021/01/16 14:55:11;;;;;;;6.45;4.45;;;;;;;;;;4771764;30;20215;-89
2021/01/16 14:57:43;;;;;;;4.18;3.78;;;;;;;;;;4777042;30;20184;-89
2021/01/16 15:00:27;;;;;;;3.85;3.47;;;;;;;;;;4776040;30;20550;-89
2021/01/16 15:03:00;;;;;;;7.15;4.85;;;;;;;;;;4759461;30;20516;-90
2021/01/16 15:05:29;;;;;;;4.30;3.88;;;;;;;;;;4759736;30;20197;-89